sensor_id;sensor_type;location;lat;lon;timestamp;P1;durP1;ratioP1;P2;durP2;ratioP2
37339;SDS011;23223;51.006;7.610;2023-08-21T00:01:02;9.45;;;6.57;;
37339;SDS011;23223;51.006;7.610;2023-08-21T00:03:28;17.92;;;6.53;;
37339;SDS011;23223;51.006;7.610;2023-08-21T00:05:55;9.13;;;5.85;;
37339;SDS011;23223;51.006;7.610;2023-08-21T00:08:20;10.93;;;6.10;;
37339;SDS011;23223;51.006;7.610;2023-08-21T00:10:46;12.07;;;6.85;;
37339;SDS011;23223;51.006;7.610;2023-08-21T00:13:12;10.20;;;5.70;;
37339;SDS011;23223;51.006;7.610;2023-08-21T00:15:38;8.82;;;5.32;;
37339;SDS011;23223;51.006;7.610;2023-08-21T00:18:04;7.57;;;5.30;;
37339;SDS011;23223;51.006;7.610;2023-08-21T00:20:30;13.48;;;5.85;;
37339;SDS011;23223;51.006;7.610;2023-08-21T00:22:56;12.95;;;5.63;;
37339;SDS011;23223;51.006;7.610;2023-08-21T00:25:22;11.70;;;6.20;;
37339;SDS011;23223;51.006;7.610;2023-08-21T00:27:47;7.88;;;5.28;;
37339;SDS011;23223;51.006;7.610;2023-08-21T00:30:13;9.50;;;6.13;;
37339;SDS011;23223;51.006;7.610;2023-08-21T00:32:42;14.15;;;6.22;;
37339;SDS011;23223;51.006;7.610;2023-08-21T00:35:08;11.77;;;5.78;;
37339;SDS011;23223;51.006;7.610;2023-08-21T00:37:33;8.70;;;5.72;;
37339;SDS011;23223;51.006;7.610;2023-08-21T00:39:59;11.70;;;5.85;;
37339;SDS011;23223;51.006;7.610;2023-08-21T00:42:25;11.63;;;5.78;;
37339;SDS011;23223;51.006;7.610;2023-08-21T00:44:50;12.60;;;6.22;;
37339;SDS011;23223;51.006;7.610;2023-08-21T00:47:16;9.27;;;5.57;;
37339;SDS011;23223;51.006;7.610;2023-08-21T00:49:42;11.27;;;6.47;;
37339;SDS011;23223;51.006;7.610;2023-08-21T00:52:08;7.43;;;5.57;;
37339;SDS011;23223;51.006;7.610;2023-08-21T00:54:37;12.63;;;5.03;;
37339;SDS011;23223;51.006;7.610;2023-08-21T00:57:03;8.52;;;5.32;;
37339;SDS011;23223;51.006;7.610;2023-08-21T00:59:29;10.60;;;6.50;;
37339;SDS011;23223;51.006;7.610;2023-08-21T01:01:55;10.93;;;5.03;;
37339;SDS011;23223;51.006;7.610;2023-08-21T01:04:21;14.43;;;5.30;;
37339;SDS011;23223;51.006;7.610;2023-08-21T01:06:48;8.13;;;5.60;;
37339;SDS011;23223;51.006;7.610;2023-08-21T01:09:19;16.75;;;6.07;;
37339;SDS011;23223;51.006;7.610;2023-08-21T01:14:33;14.30;;;5.13;;
37339;SDS011;23223;51.006;7.610;2023-08-21T01:17:08;8.40;;;4.80;;
37339;SDS011;23223;51.006;7.610;2023-08-21T01:19:40;8.65;;;5.00;;
37339;SDS011;23223;51.006;7.610;2023-08-21T01:22:08;8.93;;;4.90;;
37339;SDS011;23223;51.006;7.610;2023-08-21T01:24:34;12.40;;;5.50;;
37339;SDS011;23223;51.006;7.610;2023-08-21T01:27:00;8.82;;;5.57;;
37339;SDS011;23223;51.006;7.610;2023-08-21T01:29:25;10.90;;;5.45;;
37339;SDS011;23223;51.006;7.610;2023-08-21T01:31:55;9.02;;;5.03;;
37339;SDS011;23223;51.006;7.610;2023-08-21T01:34:31;10.52;;;4.68;;
37339;SDS011;23223;51.006;7.610;2023-08-21T01:36:58;8.75;;;4.88;;
37339;SDS011;23223;51.006;7.610;2023-08-21T01:39:28;8.20;;;5.07;;
37339;SDS011;23223;51.006;7.610;2023-08-21T01:41:54;7.05;;;5.25;;
37339;SDS011;23223;51.006;7.610;2023-08-21T01:44:21;13.80;;;4.75;;
37339;SDS011;23223;51.006;7.610;2023-08-21T01:46:46;11.18;;;5.13;;
37339;SDS011;23223;51.006;7.610;2023-08-21T01:49:12;8.55;;;5.13;;
37339;SDS011;23223;51.006;7.610;2023-08-21T01:51:37;9.60;;;5.60;;
37339;SDS011;23223;51.006;7.610;2023-08-21T01:54:03;12.55;;;5.55;;
37339;SDS011;23223;51.006;7.610;2023-08-21T01:56:29;6.70;;;5.43;;
37339;SDS011;23223;51.006;7.610;2023-08-21T01:58:54;8.50;;;4.82;;
37339;SDS011;23223;51.006;7.610;2023-08-21T02:01:20;12.05;;;5.32;;
37339;SDS011;23223;51.006;7.610;2023-08-21T02:03:45;11.13;;;5.35;;
37339;SDS011;23223;51.006;7.610;2023-08-21T02:06:11;6.50;;;5.18;;
37339;SDS011;23223;51.006;7.610;2023-08-21T02:08:37;8.85;;;5.18;;
37339;SDS011;23223;51.006;7.610;2023-08-21T02:11:02;11.20;;;4.80;;
37339;SDS011;23223;51.006;7.610;2023-08-21T02:13:28;7.13;;;5.20;;
37339;SDS011;23223;51.006;7.610;2023-08-21T02:15:53;9.05;;;6.05;;
37339;SDS011;23223;51.006;7.610;2023-08-21T02:18:19;8.50;;;5.78;;
37339;SDS011;23223;51.006;7.610;2023-08-21T02:20:46;8.95;;;6.03;;
37339;SDS011;23223;51.006;7.610;2023-08-21T02:23:12;11.10;;;5.70;;
37339;SDS011;23223;51.006;7.610;2023-08-21T02:25:38;14.50;;;5.68;;
37339;SDS011;23223;51.006;7.610;2023-08-21T02:28:03;7.57;;;6.15;;
37339;SDS011;23223;51.006;7.610;2023-08-21T02:30:29;9.73;;;6.13;;
37339;SDS011;23223;51.006;7.610;2023-08-21T02:32:55;6.93;;;5.60;;
37339;SDS011;23223;51.006;7.610;2023-08-21T02:35:20;10.50;;;6.13;;
37339;SDS011;23223;51.006;7.610;2023-08-21T02:37:46;12.68;;;5.65;;
37339;SDS011;23223;51.006;7.610;2023-08-21T02:40:11;10.18;;;5.97;;
37339;SDS011;23223;51.006;7.610;2023-08-21T02:42:37;12.45;;;5.88;;
37339;SDS011;23223;51.006;7.610;2023-08-21T02:45:03;12.73;;;6.15;;
37339;SDS011;23223;51.006;7.610;2023-08-21T02:47:42;10.07;;;5.38;;
37339;SDS011;23223;51.006;7.610;2023-08-21T02:50:09;10.02;;;5.82;;
37339;SDS011;23223;51.006;7.610;2023-08-21T02:52:35;7.28;;;5.15;;
37339;SDS011;23223;51.006;7.610;2023-08-21T02:55:02;13.95;;;5.47;;
37339;SDS011;23223;51.006;7.610;2023-08-21T02:57:28;10.82;;;5.57;;
37339;SDS011;23223;51.006;7.610;2023-08-21T02:59:54;12.23;;;5.50;;
37339;SDS011;23223;51.006;7.610;2023-08-21T03:02:20;7.95;;;5.38;;
37339;SDS011;23223;51.006;7.610;2023-08-21T03:04:46;7.82;;;5.00;;
37339;SDS011;23223;51.006;7.610;2023-08-21T03:07:12;8.75;;;6.10;;
37339;SDS011;23223;51.006;7.610;2023-08-21T03:09:38;7.90;;;5.57;;
37339;SDS011;23223;51.006;7.610;2023-08-21T03:12:04;11.68;;;5.75;;
37339;SDS011;23223;51.006;7.610;2023-08-21T03:14:30;11.88;;;5.57;;
37339;SDS011;23223;51.006;7.610;2023-08-21T03:16:56;9.48;;;5.72;;
37339;SDS011;23223;51.006;7.610;2023-08-21T03:19:22;11.70;;;5.63;;
37339;SDS011;23223;51.006;7.610;2023-08-21T03:21:48;14.80;;;5.80;;
37339;SDS011;23223;51.006;7.610;2023-08-21T03:24:13;9.07;;;5.25;;
37339;SDS011;23223;51.006;7.610;2023-08-21T03:26:39;10.55;;;5.53;;
37339;SDS011;23223;51.006;7.610;2023-08-21T03:29:05;7.63;;;4.97;;
37339;SDS011;23223;51.006;7.610;2023-08-21T03:31:30;10.40;;;5.13;;
37339;SDS011;23223;51.006;7.610;2023-08-21T03:33:56;15.73;;;5.57;;
37339;SDS011;23223;51.006;7.610;2023-08-21T03:36:22;10.50;;;6.13;;
37339;SDS011;23223;51.006;7.610;2023-08-21T03:38:58;8.07;;;5.15;;
37339;SDS011;23223;51.006;7.610;2023-08-21T03:41:25;7.22;;;5.30;;
37339;SDS011;23223;51.006;7.610;2023-08-21T03:43:50;11.68;;;5.85;;
37339;SDS011;23223;51.006;7.610;2023-08-21T03:46:16;6.45;;;4.72;;
37339;SDS011;23223;51.006;7.610;2023-08-21T03:48:41;12.40;;;5.80;;
37339;SDS011;23223;51.006;7.610;2023-08-21T03:51:07;10.48;;;4.13;;
37339;SDS011;23223;51.006;7.610;2023-08-21T03:53:33;5.90;;;4.20;;
37339;SDS011;23223;51.006;7.610;2023-08-21T03:55:58;12.05;;;5.57;;
37339;SDS011;23223;51.006;7.610;2023-08-21T03:58:24;8.93;;;5.13;;
37339;SDS011;23223;51.006;7.610;2023-08-21T04:00:53;5.90;;;4.47;;
37339;SDS011;23223;51.006;7.610;2023-08-21T04:03:19;14.70;;;5.45;;
37339;SDS011;23223;51.006;7.610;2023-08-21T04:05:45;10.13;;;4.95;;
37339;SDS011;23223;51.006;7.610;2023-08-21T04:08:10;7.68;;;4.75;;
37339;SDS011;23223;51.006;7.610;2023-08-21T04:10:36;11.88;;;5.10;;
37339;SDS011;23223;51.006;7.610;2023-08-21T04:13:03;18.17;;;6.60;;
37339;SDS011;23223;51.006;7.610;2023-08-21T04:15:29;9.63;;;5.38;;
37339;SDS011;23223;51.006;7.610;2023-08-21T04:17:55;6.28;;;4.97;;
37339;SDS011;23223;51.006;7.610;2023-08-21T04:20:21;10.25;;;5.40;;
37339;SDS011;23223;51.006;7.610;2023-08-21T04:22:47;10.95;;;5.47;;
37339;SDS011;23223;51.006;7.610;2023-08-21T04:25:13;14.57;;;6.40;;
37339;SDS011;23223;51.006;7.610;2023-08-21T04:27:39;6.53;;;5.35;;
37339;SDS011;23223;51.006;7.610;2023-08-21T04:30:05;9.20;;;6.13;;
37339;SDS011;23223;51.006;7.610;2023-08-21T04:32:31;18.65;;;5.57;;
37339;SDS011;23223;51.006;7.610;2023-08-21T04:34:57;10.57;;;5.90;;
37339;SDS011;23223;51.006;7.610;2023-08-21T04:37:23;9.60;;;5.88;;
37339;SDS011;23223;51.006;7.610;2023-08-21T04:39:52;17.70;;;6.53;;
37339;SDS011;23223;51.006;7.610;2023-08-21T04:42:18;10.35;;;5.97;;
37339;SDS011;23223;51.006;7.610;2023-08-21T04:44:44;7.45;;;5.47;;
37339;SDS011;23223;51.006;7.610;2023-08-21T04:47:19;7.05;;;5.47;;
37339;SDS011;23223;51.006;7.610;2023-08-21T04:49:47;10.02;;;6.03;;
37339;SDS011;23223;51.006;7.610;2023-08-21T04:52:16;8.73;;;6.30;;
37339;SDS011;23223;51.006;7.610;2023-08-21T04:54:42;8.30;;;5.60;;
37339;SDS011;23223;51.006;7.610;2023-08-21T04:57:07;7.22;;;5.82;;
37339;SDS011;23223;51.006;7.610;2023-08-21T04:59:33;8.73;;;6.15;;
37339;SDS011;23223;51.006;7.610;2023-08-21T05:01:59;9.98;;;6.72;;
37339;SDS011;23223;51.006;7.610;2023-08-21T05:04:25;10.52;;;5.90;;
37339;SDS011;23223;51.006;7.610;2023-08-21T05:06:51;13.07;;;6.82;;
37339;SDS011;23223;51.006;7.610;2023-08-21T05:09:16;15.85;;;5.80;;
37339;SDS011;23223;51.006;7.610;2023-08-21T05:11:42;13.50;;;7.20;;
37339;SDS011;23223;51.006;7.610;2023-08-21T05:14:07;10.07;;;7.22;;
37339;SDS011;23223;51.006;7.610;2023-08-21T05:16:33;13.18;;;8.45;;
37339;SDS011;23223;51.006;7.610;2023-08-21T05:18:59;10.60;;;6.97;;
37339;SDS011;23223;51.006;7.610;2023-08-21T05:21:24;15.95;;;7.32;;
37339;SDS011;23223;51.006;7.610;2023-08-21T05:23:50;11.85;;;7.20;;
37339;SDS011;23223;51.006;7.610;2023-08-21T05:26:16;11.50;;;8.15;;
37339;SDS011;23223;51.006;7.610;2023-08-21T05:28:41;16.25;;;7.85;;
37339;SDS011;23223;51.006;7.610;2023-08-21T05:31:07;9.82;;;7.45;;
37339;SDS011;23223;51.006;7.610;2023-08-21T05:33:32;11.55;;;7.40;;
37339;SDS011;23223;51.006;7.610;2023-08-21T05:35:58;9.32;;;7.47;;
37339;SDS011;23223;51.006;7.610;2023-08-21T05:38:24;17.38;;;8.13;;
37339;SDS011;23223;51.006;7.610;2023-08-21T05:40:50;11.48;;;7.93;;
37339;SDS011;23223;51.006;7.610;2023-08-21T05:43:18;19.92;;;8.70;;
37339;SDS011;23223;51.006;7.610;2023-08-21T05:45:44;11.45;;;8.45;;
37339;SDS011;23223;51.006;7.610;2023-08-21T05:48:09;17.63;;;9.48;;
37339;SDS011;23223;51.006;7.610;2023-08-21T05:50:35;13.10;;;8.95;;
37339;SDS011;23223;51.006;7.610;2023-08-21T05:53:04;13.48;;;8.95;;
37339;SDS011;23223;51.006;7.610;2023-08-21T05:55:31;15.73;;;8.88;;
37339;SDS011;23223;51.006;7.610;2023-08-21T05:57:57;16.25;;;8.85;;
37339;SDS011;23223;51.006;7.610;2023-08-21T06:00:23;17.58;;;8.20;;
37339;SDS011;23223;51.006;7.610;2023-08-21T06:02:49;13.73;;;7.95;;
37339;SDS011;23223;51.006;7.610;2023-08-21T06:05:14;15.98;;;8.32;;
37339;SDS011;23223;51.006;7.610;2023-08-21T06:07:40;16.40;;;7.93;;
37339;SDS011;23223;51.006;7.610;2023-08-21T06:10:09;12.90;;;8.73;;
37339;SDS011;23223;51.006;7.610;2023-08-21T06:12:40;15.50;;;7.95;;
37339;SDS011;23223;51.006;7.610;2023-08-21T06:15:06;11.70;;;8.38;;
37339;SDS011;23223;51.006;7.610;2023-08-21T06:17:35;18.38;;;7.78;;
37339;SDS011;23223;51.006;7.610;2023-08-21T06:20:04;16.73;;;8.50;;
37339;SDS011;23223;51.006;7.610;2023-08-21T06:22:31;11.40;;;8.30;;
37339;SDS011;23223;51.006;7.610;2023-08-21T06:24:57;14.10;;;8.07;;
37339;SDS011;23223;51.006;7.610;2023-08-21T06:27:23;9.57;;;7.25;;
37339;SDS011;23223;51.006;7.610;2023-08-21T06:29:49;14.05;;;7.22;;
37339;SDS011;23223;51.006;7.610;2023-08-21T06:32:14;12.38;;;6.15;;
37339;SDS011;23223;51.006;7.610;2023-08-21T06:34:40;7.90;;;6.47;;
37339;SDS011;23223;51.006;7.610;2023-08-21T06:37:05;15.20;;;6.90;;
37339;SDS011;23223;51.006;7.610;2023-08-21T06:39:31;11.43;;;6.75;;
37339;SDS011;23223;51.006;7.610;2023-08-21T06:41:57;13.95;;;6.85;;
37339;SDS011;23223;51.006;7.610;2023-08-21T06:44:22;9.73;;;6.07;;
37339;SDS011;23223;51.006;7.610;2023-08-21T06:46:48;10.90;;;5.55;;
37339;SDS011;23223;51.006;7.610;2023-08-21T06:49:13;9.57;;;6.78;;
37339;SDS011;23223;51.006;7.610;2023-08-21T06:51:39;14.00;;;6.55;;
37339;SDS011;23223;51.006;7.610;2023-08-21T06:54:05;14.00;;;7.40;;
37339;SDS011;23223;51.006;7.610;2023-08-21T06:56:30;13.75;;;6.55;;
37339;SDS011;23223;51.006;7.610;2023-08-21T06:58:56;12.48;;;6.50;;
37339;SDS011;23223;51.006;7.610;2023-08-21T07:01:22;9.57;;;6.18;;
37339;SDS011;23223;51.006;7.610;2023-08-21T07:03:48;12.40;;;6.40;;
37339;SDS011;23223;51.006;7.610;2023-08-21T07:06:13;10.45;;;6.70;;
37339;SDS011;23223;51.006;7.610;2023-08-21T07:08:39;9.13;;;6.18;;
37339;SDS011;23223;51.006;7.610;2023-08-21T07:11:05;8.85;;;6.47;;
37339;SDS011;23223;51.006;7.610;2023-08-21T07:13:33;8.98;;;6.18;;
37339;SDS011;23223;51.006;7.610;2023-08-21T07:15:59;10.38;;;6.82;;
37339;SDS011;23223;51.006;7.610;2023-08-21T07:18:28;9.27;;;5.68;;
37339;SDS011;23223;51.006;7.610;2023-08-21T07:20:57;11.57;;;5.45;;
37339;SDS011;23223;51.006;7.610;2023-08-21T07:23:23;8.80;;;5.28;;
37339;SDS011;23223;51.006;7.610;2023-08-21T07:25:48;12.25;;;6.50;;
37339;SDS011;23223;51.006;7.610;2023-08-21T07:28:14;10.50;;;4.63;;
37339;SDS011;23223;51.006;7.610;2023-08-21T07:30:40;11.93;;;5.35;;
37339;SDS011;23223;51.006;7.610;2023-08-21T07:33:06;10.25;;;6.47;;
37339;SDS011;23223;51.006;7.610;2023-08-21T07:35:32;11.63;;;6.38;;
37339;SDS011;23223;51.006;7.610;2023-08-21T07:37:57;12.70;;;6.00;;
37339;SDS011;23223;51.006;7.610;2023-08-21T07:40:24;9.18;;;6.10;;
37339;SDS011;23223;51.006;7.610;2023-08-21T07:42:50;16.42;;;6.10;;
37339;SDS011;23223;51.006;7.610;2023-08-21T07:45:16;13.05;;;6.20;;
37339;SDS011;23223;51.006;7.610;2023-08-21T07:47:42;10.75;;;5.75;;
37339;SDS011;23223;51.006;7.610;2023-08-21T07:50:07;9.05;;;6.38;;
37339;SDS011;23223;51.006;7.610;2023-08-21T07:52:34;10.38;;;6.25;;
37339;SDS011;23223;51.006;7.610;2023-08-21T07:55:00;11.88;;;6.35;;
37339;SDS011;23223;51.006;7.610;2023-08-21T07:57:27;9.50;;;6.53;;
37339;SDS011;23223;51.006;7.610;2023-08-21T07:59:53;11.20;;;6.25;;
37339;SDS011;23223;51.006;7.610;2023-08-21T08:02:19;10.32;;;5.78;;
37339;SDS011;23223;51.006;7.610;2023-08-21T08:04:45;8.57;;;5.88;;
37339;SDS011;23223;51.006;7.610;2023-08-21T08:07:11;12.02;;;6.30;;
37339;SDS011;23223;51.006;7.610;2023-08-21T08:09:36;9.52;;;6.20;;
37339;SDS011;23223;51.006;7.610;2023-08-21T08:12:03;9.55;;;6.40;;
37339;SDS011;23223;51.006;7.610;2023-08-21T08:14:29;9.27;;;5.90;;
37339;SDS011;23223;51.006;7.610;2023-08-21T08:16:54;12.68;;;6.10;;
37339;SDS011;23223;51.006;7.610;2023-08-21T08:19:20;6.45;;;5.80;;
37339;SDS011;23223;51.006;7.610;2023-08-21T08:21:45;9.32;;;5.93;;
37339;SDS011;23223;51.006;7.610;2023-08-21T08:24:11;8.65;;;6.00;;
37339;SDS011;23223;51.006;7.610;2023-08-21T08:26:37;8.38;;;5.45;;
37339;SDS011;23223;51.006;7.610;2023-08-21T08:29:03;11.05;;;5.45;;
37339;SDS011;23223;51.006;7.610;2023-08-21T08:31:30;7.68;;;5.18;;
37339;SDS011;23223;51.006;7.610;2023-08-21T08:33:55;10.35;;;6.20;;
37339;SDS011;23223;51.006;7.610;2023-08-21T08:36:22;7.38;;;5.30;;
37339;SDS011;23223;51.006;7.610;2023-08-21T08:38:48;7.65;;;5.55;;
37339;SDS011;23223;51.006;7.610;2023-08-21T08:41:16;8.25;;;6.30;;
37339;SDS011;23223;51.006;7.610;2023-08-21T08:44:11;8.38;;;5.40;;
37339;SDS011;23223;51.006;7.610;2023-08-21T08:46:39;8.48;;;5.38;;
37339;SDS011;23223;51.006;7.610;2023-08-21T08:49:05;8.00;;;5.70;;
37339;SDS011;23223;51.006;7.610;2023-08-21T08:51:32;22.70;;;6.35;;
37339;SDS011;23223;51.006;7.610;2023-08-21T08:54:02;11.80;;;6.00;;
37339;SDS011;23223;51.006;7.610;2023-08-21T08:56:28;6.85;;;5.22;;
37339;SDS011;23223;51.006;7.610;2023-08-21T08:58:54;8.82;;;5.75;;
37339;SDS011;23223;51.006;7.610;2023-08-21T09:01:20;11.50;;;6.00;;
37339;SDS011;23223;51.006;7.610;2023-08-21T09:03:45;7.22;;;5.20;;
37339;SDS011;23223;51.006;7.610;2023-08-21T09:06:11;7.65;;;5.95;;
37339;SDS011;23223;51.006;7.610;2023-08-21T09:08:37;7.15;;;5.40;;
37339;SDS011;23223;51.006;7.610;2023-08-21T09:11:02;9.68;;;6.38;;
37339;SDS011;23223;51.006;7.610;2023-08-21T09:13:28;7.07;;;5.32;;
37339;SDS011;23223;51.006;7.610;2023-08-21T09:15:56;11.45;;;6.07;;
37339;SDS011;23223;51.006;7.610;2023-08-21T09:18:23;9.98;;;6.07;;
37339;SDS011;23223;51.006;7.610;2023-08-21T09:20:49;8.38;;;5.78;;
37339;SDS011;23223;51.006;7.610;2023-08-21T09:23:15;10.88;;;6.57;;
37339;SDS011;23223;51.006;7.610;2023-08-21T09:25:43;8.15;;;5.90;;
37339;SDS011;23223;51.006;7.610;2023-08-21T09:28:12;9.40;;;5.95;;
37339;SDS011;23223;51.006;7.610;2023-08-21T09:30:44;7.20;;;5.63;;
37339;SDS011;23223;51.006;7.610;2023-08-21T09:33:17;7.55;;;5.45;;
37339;SDS011;23223;51.006;7.610;2023-08-21T09:35:44;9.02;;;6.78;;
37339;SDS011;23223;51.006;7.610;2023-08-21T09:38:10;7.90;;;5.82;;
37339;SDS011;23223;51.006;7.610;2023-08-21T09:40:43;9.98;;;6.00;;
37339;SDS011;23223;51.006;7.610;2023-08-21T09:43:18;8.48;;;5.68;;
37339;SDS011;23223;51.006;7.610;2023-08-21T09:45:48;11.13;;;5.68;;
37339;SDS011;23223;51.006;7.610;2023-08-21T09:48:19;9.27;;;5.70;;
37339;SDS011;23223;51.006;7.610;2023-08-21T09:50:49;11.20;;;6.22;;
37339;SDS011;23223;51.006;7.610;2023-08-21T09:53:16;6.78;;;5.70;;
37339;SDS011;23223;51.006;7.610;2023-08-21T09:55:42;9.85;;;6.25;;
37339;SDS011;23223;51.006;7.610;2023-08-21T09:58:09;6.50;;;5.68;;
37339;SDS011;23223;51.006;7.610;2023-08-21T10:00:35;6.32;;;5.72;;
37339;SDS011;23223;51.006;7.610;2023-08-21T10:03:06;6.35;;;5.72;;
37339;SDS011;23223;51.006;7.610;2023-08-21T10:05:36;8.10;;;6.05;;
37339;SDS011;23223;51.006;7.610;2023-08-21T10:08:05;7.40;;;5.38;;
37339;SDS011;23223;51.006;7.610;2023-08-21T10:10:32;5.40;;;4.90;;
37339;SDS011;23223;51.006;7.610;2023-08-21T10:13:00;7.15;;;4.85;;
37339;SDS011;23223;51.006;7.610;2023-08-21T10:15:30;10.82;;;5.45;;
37339;SDS011;23223;51.006;7.610;2023-08-21T10:17:57;9.30;;;5.10;;
37339;SDS011;23223;51.006;7.610;2023-08-21T10:20:24;10.93;;;5.45;;
37339;SDS011;23223;51.006;7.610;2023-08-21T10:22:54;6.22;;;4.93;;
37339;SDS011;23223;51.006;7.610;2023-08-21T10:25:22;4.53;;;4.05;;
37339;SDS011;23223;51.006;7.610;2023-08-21T10:27:54;5.00;;;4.35;;
37339;SDS011;23223;51.006;7.610;2023-08-21T10:30:22;4.55;;;3.83;;
37339;SDS011;23223;51.006;7.610;2023-08-21T10:32:50;6.60;;;4.18;;
37339;SDS011;23223;51.006;7.610;2023-08-21T10:35:20;4.93;;;4.43;;
37339;SDS011;23223;51.006;7.610;2023-08-21T10:38:06;11.23;;;5.20;;
37339;SDS011;23223;51.006;7.610;2023-08-21T10:41:03;6.80;;;3.85;;
37339;SDS011;23223;51.006;7.610;2023-08-21T10:43:40;6.85;;;3.90;;
37339;SDS011;23223;51.006;7.610;2023-08-21T10:46:09;4.32;;;3.53;;
37339;SDS011;23223;51.006;7.610;2023-08-21T10:48:36;6.05;;;3.80;;
37339;SDS011;23223;51.006;7.610;2023-08-21T10:51:03;5.68;;;3.30;;
37339;SDS011;23223;51.006;7.610;2023-08-21T10:53:33;7.53;;;4.03;;
37339;SDS011;23223;51.006;7.610;2023-08-21T10:56:03;6.13;;;3.55;;
37339;SDS011;23223;51.006;7.610;2023-08-21T10:58:40;9.07;;;3.28;;
37339;SDS011;23223;51.006;7.610;2023-08-21T11:01:07;6.50;;;3.97;;
37339;SDS011;23223;51.006;7.610;2023-08-21T11:03:32;5.82;;;3.92;;
37339;SDS011;23223;51.006;7.610;2023-08-21T11:06:05;6.25;;;3.97;;
37339;SDS011;23223;51.006;7.610;2023-08-21T11:08:33;4.38;;;2.80;;
37339;SDS011;23223;51.006;7.610;2023-08-21T11:10:59;6.30;;;3.55;;
37339;SDS011;23223;51.006;7.610;2023-08-21T11:13:26;3.78;;;2.97;;
37339;SDS011;23223;51.006;7.610;2023-08-21T11:15:59;7.13;;;3.70;;
37339;SDS011;23223;51.006;7.610;2023-08-21T11:18:29;7.82;;;3.60;;
37339;SDS011;23223;51.006;7.610;2023-08-21T11:21:03;4.93;;;3.83;;
37339;SDS011;23223;51.006;7.610;2023-08-21T11:23:33;8.15;;;4.40;;
37339;SDS011;23223;51.006;7.610;2023-08-21T11:26:01;4.85;;;3.10;;
37339;SDS011;23223;51.006;7.610;2023-08-21T11:28:28;5.45;;;3.35;;
37339;SDS011;23223;51.006;7.610;2023-08-21T11:30:55;4.32;;;3.80;;
37339;SDS011;23223;51.006;7.610;2023-08-21T11:33:21;5.07;;;3.97;;
37339;SDS011;23223;51.006;7.610;2023-08-21T11:35:47;8.85;;;4.57;;
37339;SDS011;23223;51.006;7.610;2023-08-21T11:38:22;6.88;;;4.38;;
37339;SDS011;23223;51.006;7.610;2023-08-21T11:40:52;5.40;;;3.85;;
37339;SDS011;23223;51.006;7.610;2023-08-21T11:43:33;5.13;;;3.30;;
37339;SDS011;23223;51.006;7.610;2023-08-21T11:46:00;5.47;;;3.67;;
37339;SDS011;23223;51.006;7.610;2023-08-21T11:48:27;5.45;;;4.45;;
37339;SDS011;23223;51.006;7.610;2023-08-21T11:50:53;8.25;;;4.20;;
37339;SDS011;23223;51.006;7.610;2023-08-21T11:53:30;5.00;;;3.97;;
37339;SDS011;23223;51.006;7.610;2023-08-21T11:56:09;9.88;;;4.65;;
37339;SDS011;23223;51.006;7.610;2023-08-21T11:58:42;11.30;;;3.72;;
37339;SDS011;23223;51.006;7.610;2023-08-21T12:01:10;7.35;;;3.50;;
37339;SDS011;23223;51.006;7.610;2023-08-21T12:03:39;4.57;;;4.00;;
37339;SDS011;23223;51.006;7.610;2023-08-21T12:06:08;6.97;;;4.07;;
37339;SDS011;23223;51.006;7.610;2023-08-21T12:08:34;6.75;;;4.20;;
37339;SDS011;23223;51.006;7.610;2023-08-21T12:11:01;3.45;;;3.05;;
37339;SDS011;23223;51.006;7.610;2023-08-21T12:13:26;6.45;;;2.97;;
37339;SDS011;23223;51.006;7.610;2023-08-21T12:15:52;6.43;;;2.83;;
37339;SDS011;23223;51.006;7.610;2023-08-21T12:18:18;4.18;;;2.60;;
37339;SDS011;23223;51.006;7.610;2023-08-21T12:20:43;7.00;;;3.72;;
37339;SDS011;23223;51.006;7.610;2023-08-21T12:23:09;5.95;;;3.03;;
37339;SDS011;23223;51.006;7.610;2023-08-21T12:25:34;5.47;;;4.13;;
37339;SDS011;23223;51.006;7.610;2023-08-21T12:28:00;4.43;;;3.13;;
37339;SDS011;23223;51.006;7.610;2023-08-21T12:30:26;5.82;;;3.55;;
37339;SDS011;23223;51.006;7.610;2023-08-21T12:32:51;5.88;;;2.90;;
37339;SDS011;23223;51.006;7.610;2023-08-21T12:35:17;7.93;;;3.25;;
37339;SDS011;23223;51.006;7.610;2023-08-21T12:37:42;4.15;;;2.60;;
37339;SDS011;23223;51.006;7.610;2023-08-21T12:40:08;4.88;;;3.15;;
37339;SDS011;23223;51.006;7.610;2023-08-21T12:42:34;5.25;;;3.22;;
37339;SDS011;23223;51.006;7.610;2023-08-21T12:44:59;5.38;;;3.47;;
37339;SDS011;23223;51.006;7.610;2023-08-21T12:47:25;7.18;;;3.75;;
37339;SDS011;23223;51.006;7.610;2023-08-21T12:49:51;8.40;;;3.53;;
37339;SDS011;23223;51.006;7.610;2023-08-21T12:52:16;8.02;;;3.45;;
37339;SDS011;23223;51.006;7.610;2023-08-21T12:54:42;8.93;;;3.08;;
37339;SDS011;23223;51.006;7.610;2023-08-21T12:57:08;4.78;;;3.17;;
37339;SDS011;23223;51.006;7.610;2023-08-21T12:59:36;6.63;;;2.70;;
37339;SDS011;23223;51.006;7.610;2023-08-21T13:02:01;6.78;;;2.15;;
37339;SDS011;23223;51.006;7.610;2023-08-21T13:04:28;5.32;;;2.47;;
37339;SDS011;23223;51.006;7.610;2023-08-21T13:06:54;6.07;;;2.65;;
37339;SDS011;23223;51.006;7.610;2023-08-21T13:09:19;4.75;;;2.35;;
37339;SDS011;23223;51.006;7.610;2023-08-21T13:11:45;5.70;;;2.58;;
37339;SDS011;23223;51.006;7.610;2023-08-21T13:14:11;4.10;;;1.90;;
37339;SDS011;23223;51.006;7.610;2023-08-21T13:16:36;8.40;;;2.38;;
37339;SDS011;23223;51.006;7.610;2023-08-21T13:19:02;4.97;;;2.20;;
37339;SDS011;23223;51.006;7.610;2023-08-21T13:21:27;5.82;;;2.30;;
37339;SDS011;23223;51.006;7.610;2023-08-21T13:23:53;6.65;;;2.70;;
37339;SDS011;23223;51.006;7.610;2023-08-21T13:26:19;4.28;;;2.60;;
37339;SDS011;23223;51.006;7.610;2023-08-21T13:28:44;4.75;;;1.75;;
37339;SDS011;23223;51.006;7.610;2023-08-21T13:31:10;7.22;;;2.80;;
37339;SDS011;23223;51.006;7.610;2023-08-21T13:33:46;7.03;;;2.63;;
37339;SDS011;23223;51.006;7.610;2023-08-21T13:36:12;4.07;;;2.30;;
37339;SDS011;23223;51.006;7.610;2023-08-21T13:38:39;4.50;;;2.33;;
37339;SDS011;23223;51.006;7.610;2023-08-21T13:41:04;4.57;;;2.97;;
37339;SDS011;23223;51.006;7.610;2023-08-21T13:43:30;6.85;;;2.40;;
37339;SDS011;23223;51.006;7.610;2023-08-21T13:45:56;4.70;;;2.85;;
37339;SDS011;23223;51.006;7.610;2023-08-21T13:48:21;2.83;;;1.98;;
37339;SDS011;23223;51.006;7.610;2023-08-21T13:50:47;4.70;;;2.28;;
37339;SDS011;23223;51.006;7.610;2023-08-21T13:53:12;4.30;;;2.15;;
37339;SDS011;23223;51.006;7.610;2023-08-21T13:55:38;7.47;;;2.70;;
37339;SDS011;23223;51.006;7.610;2023-08-21T13:58:03;7.90;;;2.67;;
37339;SDS011;23223;51.006;7.610;2023-08-21T14:00:29;4.40;;;2.38;;
37339;SDS011;23223;51.006;7.610;2023-08-21T14:02:55;5.50;;;3.10;;
37339;SDS011;23223;51.006;7.610;2023-08-21T14:05:20;3.42;;;2.45;;
37339;SDS011;23223;51.006;7.610;2023-08-21T14:07:46;3.80;;;3.03;;
37339;SDS011;23223;51.006;7.610;2023-08-21T14:10:12;5.75;;;2.90;;
37339;SDS011;23223;51.006;7.610;2023-08-21T14:12:39;5.05;;;3.28;;
37339;SDS011;23223;51.006;7.610;2023-08-21T14:15:05;6.43;;;3.53;;
37339;SDS011;23223;51.006;7.610;2023-08-21T14:17:31;4.95;;;3.10;;
37339;SDS011;23223;51.006;7.610;2023-08-21T14:19:56;5.30;;;2.53;;
37339;SDS011;23223;51.006;7.610;2023-08-21T14:22:22;6.78;;;2.63;;
37339;SDS011;23223;51.006;7.610;2023-08-21T14:24:48;4.40;;;2.70;;
37339;SDS011;23223;51.006;7.610;2023-08-21T14:27:13;4.90;;;2.28;;
37339;SDS011;23223;51.006;7.610;2023-08-21T14:29:39;6.60;;;2.92;;
37339;SDS011;23223;51.006;7.610;2023-08-21T14:32:07;10.52;;;2.60;;
37339;SDS011;23223;51.006;7.610;2023-08-21T14:34:33;4.97;;;2.80;;
37339;SDS011;23223;51.006;7.610;2023-08-21T14:36:58;6.03;;;2.85;;
37339;SDS011;23223;51.006;7.610;2023-08-21T14:39:24;3.90;;;2.65;;
37339;SDS011;23223;51.006;7.610;2023-08-21T14:41:54;4.85;;;2.33;;
37339;SDS011;23223;51.006;7.610;2023-08-21T14:44:21;6.18;;;2.50;;